createdAt,value
2023-01-04T00:01:45.299Z,5.82
2023-01-04T00:04:30.882Z,5.80
2023-01-04T00:07:15.977Z,5.82
2023-01-04T00:10:01.255Z,5.82
2023-01-04T00:12:46.421Z,5.86
2023-01-04T00:15:32.014Z,5.86
2023-01-04T00:18:17.302Z,5.83
2023-01-04T00:21:14.027Z,5.80
2023-01-04T00:24:01.660Z,5.80
2023-01-04T00:26:46.991Z,5.78
2023-01-04T00:29:33.066Z,5.73
2023-01-04T00:32:18.383Z,5.73
2023-01-04T00:35:05.417Z,5.73
2023-01-04T00:37:52.277Z,5.71
2023-01-04T00:40:37.315Z,5.74
2023-01-04T00:43:22.770Z,5.71
2023-01-04T00:46:11.433Z,5.74
2023-01-04T00:49:00.443Z,5.73
2023-01-04T00:51:46.104Z,5.72
2023-01-04T00:54:31.507Z,5.71
2023-01-04T00:57:16.872Z,5.71
2023-01-04T01:00:02.254Z,5.74
2023-01-04T01:02:47.635Z,5.71
2023-01-04T01:05:35.398Z,5.70
2023-01-04T01:08:26.544Z,5.69
2023-01-04T01:11:12.431Z,5.69
2023-01-04T01:13:58.807Z,5.74
2023-01-04T01:16:54.900Z,5.76
2023-01-04T01:19:41.458Z,5.77
2023-01-04T01:22:26.639Z,5.74
2023-01-04T01:25:11.857Z,5.76
2023-01-04T01:27:57.126Z,5.75
2023-01-04T01:30:43.487Z,5.78
2023-01-04T01:33:28.561Z,5.75
2023-01-04T01:36:15.396Z,5.76
2023-01-04T01:39:00.869Z,5.75
2023-01-04T01:41:46.280Z,5.75
2023-01-04T01:44:46.681Z,5.76
2023-01-04T01:47:41.706Z,5.76
2023-01-04T01:50:31.301Z,5.71
2023-01-04T01:53:17.097Z,5.71
2023-01-04T01:56:05.782Z,5.67
2023-01-04T01:58:54.664Z,5.62
2023-01-04T02:01:40.561Z,5.59
2023-01-04T02:04:25.707Z,5.56
2023-01-04T02:07:13.655Z,5.55
2023-01-04T02:09:58.960Z,5.53
2023-01-04T02:12:45.943Z,5.50
2023-01-04T02:15:44.434Z,5.50
2023-01-04T02:18:39.330Z,5.48
2023-01-04T02:22:01.264Z,5.44
2023-01-04T02:25:25.273Z,5.43
2023-01-04T02:28:37.231Z,5.42
2023-01-04T02:31:31.699Z,5.40
2023-01-04T02:34:44.645Z,5.36
2023-01-04T02:37:41.322Z,5.32
2023-01-04T02:40:59.462Z,5.31
2023-01-04T02:44:17.125Z,5.26
2023-01-04T02:47:15.845Z,5.28
2023-01-04T02:50:27.698Z,5.25
2023-01-04T02:53:16.853Z,5.24
2023-01-04T02:56:18.535Z,5.26
2023-01-04T02:59:22.381Z,5.24
2023-01-04T03:02:57.656Z,5.24
2023-01-04T03:06:16.040Z,5.22
2023-01-04T03:09:13.279Z,5.20
2023-01-04T03:12:24.561Z,5.20
2023-01-04T03:15:23.654Z,5.23
2023-01-04T03:18:19.031Z,5.24
2023-01-04T03:21:07.722Z,5.21
2023-01-04T03:24:14.927Z,5.16
2023-01-04T03:27:25.304Z,5.14
2023-01-04T03:30:32.818Z,5.14
2023-01-04T03:33:37.581Z,5.14
2023-01-04T03:36:28.858Z,5.12
2023-01-04T03:39:57.511Z,5.12
2023-01-04T03:43:08.046Z,5.11
2023-01-04T03:46:20.656Z,5.14
2023-01-04T03:49:10.415Z,5.14
2023-01-04T03:52:00.313Z,5.13
2023-01-04T03:54:48.755Z,5.14
2023-01-04T03:57:35.309Z,5.15
2023-01-04T04:00:20.917Z,5.15
2023-01-04T04:03:12.229Z,5.13
2023-01-04T04:06:16.410Z,5.13
2023-01-04T04:09:01.962Z,5.12
2023-01-04T04:11:48.625Z,5.11
2023-01-04T04:14:34.091Z,5.11
2023-01-04T04:17:19.509Z,5.07
2023-01-04T04:20:05.403Z,5.06
2023-01-04T04:22:50.554Z,5.06
2023-01-04T04:25:35.991Z,5.07
2023-01-04T04:28:21.387Z,5.06
2023-01-04T04:31:07.141Z,5.09
2023-01-04T04:33:52.154Z,5.05
2023-01-04T04:36:37.867Z,5.04
2023-01-04T04:39:23.028Z,5.03
2023-01-04T04:42:09.117Z,5.06
2023-01-04T04:44:54.549Z,5.09
2023-01-04T04:47:40.071Z,5.09
2023-01-04T04:50:25.307Z,5.09
2023-01-04T04:53:10.592Z,5.12
2023-01-04T04:55:56.157Z,5.12
2023-01-04T04:58:41.449Z,5.10
2023-01-04T05:01:26.905Z,5.10
2023-01-04T05:04:16.564Z,5.15
2023-01-04T05:07:03.360Z,5.18
2023-01-04T05:09:50.496Z,5.19
2023-01-04T05:12:57.969Z,5.23
2023-01-04T05:15:46.771Z,5.30
2023-01-04T05:18:32.694Z,5.35
2023-01-04T05:21:20.277Z,5.44
2023-01-04T05:24:05.811Z,5.39
2023-01-04T05:26:50.903Z,5.42
2023-01-04T05:29:55.014Z,5.44
2023-01-04T05:32:40.173Z,5.49
2023-01-04T05:35:26.236Z,5.49
2023-01-04T05:38:11.558Z,5.56
2023-01-04T05:40:56.942Z,5.56
2023-01-04T05:43:42.233Z,5.60
2023-01-04T05:46:27.740Z,5.64
2023-01-04T05:49:12.682Z,5.69
2023-01-04T05:51:58.181Z,5.74
2023-01-04T05:54:43.728Z,5.75
2023-01-04T05:57:29.048Z,5.77
2023-01-04T06:00:14.843Z,5.78
2023-01-04T06:03:00.071Z,5.80
2023-01-04T06:05:50.281Z,5.80
2023-01-04T06:08:35.910Z,5.84
2023-01-04T06:11:27.216Z,5.85
2023-01-04T06:14:13.169Z,5.89
2023-01-04T06:16:58.852Z,5.94
2023-01-04T06:19:44.120Z,6.00
2023-01-04T06:22:29.964Z,5.96
2023-01-04T06:25:15.771Z,6.00
2023-01-04T06:28:01.126Z,6.04
2023-01-04T06:30:46.813Z,6.06
2023-01-04T06:33:32.595Z,6.11
2023-01-04T06:36:19.843Z,6.15
2023-01-04T06:39:06.191Z,6.20
2023-01-04T06:41:51.578Z,6.25
2023-01-04T06:44:36.991Z,6.32
2023-01-04T06:47:22.672Z,6.37
2023-01-04T06:50:08.678Z,6.41
2023-01-04T06:52:53.952Z,6.43
2023-01-04T06:55:39.409Z,6.46
2023-01-04T06:58:25.177Z,6.50
2023-01-04T07:01:10.660Z,6.56
2023-01-04T07:03:55.864Z,6.60
2023-01-04T07:06:41.024Z,6.64
2023-01-04T07:09:26.484Z,6.68
2023-01-04T07:12:11.676Z,6.70
2023-01-04T07:14:57.127Z,6.81
2023-01-04T07:17:42.432Z,6.86
2023-01-04T07:20:27.951Z,6.88
2023-01-04T07:23:12.971Z,6.90
2023-01-04T07:26:01.672Z,6.88
2023-01-04T07:29:05.873Z,6.88
2023-01-04T07:31:52.529Z,6.82
2023-01-04T07:34:38.418Z,6.77
2023-01-04T07:37:24.073Z,6.76
2023-01-04T07:40:10.101Z,6.70
2023-01-04T07:42:59.421Z,6.68
2023-01-04T07:45:46.181Z,6.67
2023-01-04T07:48:31.472Z,6.68
2023-01-04T07:51:16.848Z,6.67
2023-01-04T07:54:01.952Z,6.61
2023-01-04T07:56:48.511Z,6.61
2023-01-04T07:59:33.746Z,6.66
2023-01-04T08:02:18.902Z,6.69
2023-01-04T08:05:04.620Z,6.66
2023-01-04T08:07:49.990Z,6.65
2023-01-04T08:10:36.176Z,6.62
2023-01-04T08:13:21.607Z,6.62
2023-01-04T08:16:08.027Z,6.65
2023-01-04T08:18:58.612Z,6.65
2023-01-04T08:21:44.349Z,6.59
2023-01-04T08:24:29.604Z,6.58
2023-01-04T08:27:15.136Z,6.67
2023-01-04T08:30:00.697Z,6.66
2023-01-04T08:32:46.601Z,6.62
2023-01-04T08:35:32.024Z,6.65
2023-01-04T08:38:57.665Z,6.66
2023-01-04T08:41:56.135Z,6.66
2023-01-04T08:44:28.014Z,6.71
2023-01-04T08:47:13.096Z,6.74
2023-01-04T08:49:59.448Z,6.81
2023-01-04T08:52:46.319Z,6.75
2023-01-04T08:55:31.705Z,6.75
2023-01-04T08:58:17.205Z,6.80
2023-01-04T09:01:05.167Z,6.80
2023-01-04T09:03:50.354Z,6.79
2023-01-04T09:06:37.460Z,6.82
2023-01-04T09:09:22.836Z,6.80
2023-01-04T09:12:08.304Z,6.81
2023-01-04T09:14:53.530Z,6.86
2023-01-04T09:17:51.944Z,6.87
2023-01-04T09:20:44.437Z,6.90
2023-01-04T09:23:30.961Z,7.22
2023-01-04T09:26:21.514Z,8.04
2023-01-04T09:29:06.803Z,8.11
2023-01-04T09:31:52.112Z,8.93
2023-01-04T09:34:37.466Z,8.67
2023-01-04T09:37:22.997Z,8.54
2023-01-04T09:40:18.697Z,8.64
2023-01-04T09:43:19.986Z,9.35
2023-01-04T09:46:12.102Z,9.51
2023-01-04T09:49:13.095Z,9.14
2023-01-04T09:52:03.756Z,8.95
2023-01-04T09:55:04.982Z,9.18
2023-01-04T09:58:37.942Z,9.65
2023-01-04T10:01:36.178Z,9.78
2023-01-04T10:04:41.943Z,9.35
2023-01-04T10:07:29.713Z,8.93
2023-01-04T10:10:17.896Z,9.22
2023-01-04T10:13:30.958Z,9.54
2023-01-04T10:17:20.284Z,9.14
2023-01-04T10:21:21.806Z,9.27
2023-01-04T10:23:51.672Z,9.24
2023-01-04T10:26:45.313Z,8.97
2023-01-04T10:29:56.629Z,8.99
2023-01-04T10:32:45.657Z,8.88
2023-01-04T10:35:35.298Z,9.55
2023-01-04T10:38:25.754Z,9.68
2023-01-04T10:41:21.309Z,9.39
2023-01-04T10:44:22.035Z,9.43
2023-01-04T10:47:27.130Z,9.49
2023-01-04T10:50:22.273Z,9.42
2023-01-04T10:53:19.640Z,9.65
2023-01-04T10:56:25.651Z,9.48
2023-01-04T10:59:29.714Z,9.44
2023-01-04T11:02:26.152Z,9.38
2023-01-04T11:05:37.596Z,9.24
2023-01-04T11:08:46.926Z,9.65
2023-01-04T11:11:46.422Z,9.61
2023-01-04T11:14:37.028Z,9.91
2023-01-04T11:17:24.834Z,10.02
2023-01-04T11:20:10.950Z,9.89
2023-01-04T11:23:05.315Z,10.33
2023-01-04T11:25:57.542Z,10.08
2023-01-04T11:28:49.598Z,9.77
2023-01-04T11:31:49.400Z,9.48
2023-01-04T11:35:04.383Z,9.60
2023-01-04T11:37:49.625Z,9.83
2023-01-04T11:40:35.835Z,9.76
2023-01-04T11:43:22.929Z,9.53
2023-01-04T11:46:17.687Z,9.46
2023-01-04T11:49:03.191Z,9.38
2023-01-04T11:51:48.662Z,9.45
2023-01-04T11:54:34.045Z,9.51
2023-01-04T11:57:20.315Z,9.71
2023-01-04T12:00:23.861Z,9.28
2023-01-04T12:03:13.978Z,9.45
2023-01-04T12:05:59.550Z,9.32
2023-01-04T12:08:44.889Z,9.78
2023-01-04T12:11:34.159Z,9.88
2023-01-04T12:14:32.520Z,9.73
2023-01-04T12:17:47.965Z,9.46
2023-01-04T12:20:33.488Z,10.15
2023-01-04T12:23:20.352Z,10.44
2023-01-04T12:26:08.770Z,10.34
2023-01-04T12:29:24.764Z,9.95
2023-01-04T12:32:13.472Z,9.58
2023-01-04T12:34:58.853Z,9.59
2023-01-04T12:37:48.424Z,9.43
2023-01-04T12:40:48.770Z,9.13
2023-01-04T12:43:43.114Z,8.93
2023-01-04T12:46:50.440Z,8.77
2023-01-04T12:49:41.656Z,8.63
2023-01-04T12:52:37.804Z,8.55
2023-01-04T12:55:52.087Z,8.48
2023-01-04T12:59:23.714Z,8.44
2023-01-04T13:02:28.709Z,8.35
2023-01-04T13:08:22.647Z,8.19
2023-01-04T13:11:32.426Z,8.16
2023-01-04T13:14:27.695Z,8.17
2023-01-04T13:17:25.732Z,8.19
2023-01-04T13:20:23.679Z,8.19
2023-01-04T13:23:12.798Z,8.20
2023-01-04T13:26:26.710Z,8.23
2023-01-04T13:29:27.324Z,8.24
2023-01-04T13:32:23.444Z,8.21
2023-01-04T13:35:14.619Z,8.22
2023-01-04T13:38:01.212Z,8.20
2023-01-04T13:40:49.602Z,8.23
2023-01-04T13:43:54.209Z,8.25
2023-01-04T13:46:43.100Z,8.25
2023-01-04T13:49:29.216Z,8.26
2023-01-04T13:55:35.416Z,8.26
2023-01-04T13:58:23.384Z,8.27
2023-01-04T14:01:21.391Z,8.27
2023-01-04T14:04:14.347Z,8.28
2023-01-04T14:07:01.594Z,8.31
2023-01-04T14:09:50.188Z,8.33
2023-01-04T14:12:36.485Z,8.33
2023-01-04T14:15:24.843Z,8.38
2023-01-04T14:18:31.309Z,8.37
2023-01-04T14:21:17.968Z,8.43
2023-01-04T14:24:03.479Z,8.40
2023-01-04T14:26:48.713Z,8.42
2023-01-04T14:29:34.453Z,8.42
2023-01-04T14:32:19.896Z,8.44
2023-01-04T14:35:11.564Z,8.46
2023-01-04T14:38:06.025Z,8.50
2023-01-04T14:40:51.133Z,8.51
2023-01-04T14:43:49.624Z,8.56
2023-01-04T14:46:35.346Z,8.60
2023-01-04T14:49:22.175Z,8.59
2023-01-04T14:52:20.987Z,8.62
2023-01-04T14:55:06.903Z,8.63
2023-01-04T14:57:52.035Z,8.65
2023-01-04T15:00:37.340Z,8.66
2023-01-04T15:03:22.906Z,8.68
2023-01-04T15:06:08.735Z,8.70
2023-01-04T15:08:54.079Z,10.18
2023-01-04T15:11:39.289Z,10.01
2023-01-04T15:14:24.882Z,9.65
2023-01-04T15:17:10.331Z,9.42
2023-01-04T15:19:55.678Z,9.25
